sensor_id;sensor_type;location;lat;lon;timestamp;P1;durP1;ratioP1;P2;durP2;ratioP2
15958;SDS011;8078;47.822;9.402;2023-02-11T00:00:03;38.80;;;20.30;;
15958;SDS011;8078;47.822;9.402;2023-02-11T00:02:31;37.93;;;20.90;;
15958;SDS011;8078;47.822;9.402;2023-02-11T00:04:57;36.63;;;20.63;;
15958;SDS011;8078;47.822;9.402;2023-02-11T00:07:23;36.23;;;21.47;;
15958;SDS011;8078;47.822;9.402;2023-02-11T00:09:49;42.13;;;21.10;;
15958;SDS011;8078;47.822;9.402;2023-02-11T00:12:15;36.20;;;18.87;;
15958;SDS011;8078;47.822;9.402;2023-02-11T00:14:43;37.30;;;21.27;;
15958;SDS011;8078;47.822;9.402;2023-02-11T00:17:09;38.80;;;19.50;;
15958;SDS011;8078;47.822;9.402;2023-02-11T00:19:34;49.53;;;22.90;;
15958;SDS011;8078;47.822;9.402;2023-02-11T00:22:00;43.63;;;24.23;;
15958;SDS011;8078;47.822;9.402;2023-02-11T00:24:25;45.27;;;25.50;;
15958;SDS011;8078;47.822;9.402;2023-02-11T00:26:51;51.17;;;26.90;;
15958;SDS011;8078;47.822;9.402;2023-02-11T00:29:16;48.30;;;25.67;;
15958;SDS011;8078;47.822;9.402;2023-02-11T00:31:42;45.77;;;24.97;;
15958;SDS011;8078;47.822;9.402;2023-02-11T00:34:07;53.23;;;28.13;;
15958;SDS011;8078;47.822;9.402;2023-02-11T00:36:33;54.17;;;27.37;;
15958;SDS011;8078;47.822;9.402;2023-02-11T00:38:58;40.73;;;21.60;;
15958;SDS011;8078;47.822;9.402;2023-02-11T00:41:24;40.23;;;21.60;;
15958;SDS011;8078;47.822;9.402;2023-02-11T00:43:50;38.20;;;21.40;;
15958;SDS011;8078;47.822;9.402;2023-02-11T00:46:16;41.03;;;22.47;;
15958;SDS011;8078;47.822;9.402;2023-02-11T00:48:42;40.60;;;21.77;;
15958;SDS011;8078;47.822;9.402;2023-02-11T00:51:07;38.77;;;20.83;;
15958;SDS011;8078;47.822;9.402;2023-02-11T00:53:34;46.67;;;21.00;;
15958;SDS011;8078;47.822;9.402;2023-02-11T00:55:59;37.20;;;22.40;;
15958;SDS011;8078;47.822;9.402;2023-02-11T00:58:25;45.60;;;22.70;;
15958;SDS011;8078;47.822;9.402;2023-02-11T01:00:52;36.67;;;22.27;;
15958;SDS011;8078;47.822;9.402;2023-02-11T01:03:19;35.77;;;21.20;;
15958;SDS011;8078;47.822;9.402;2023-02-11T01:05:44;40.67;;;21.87;;
15958;SDS011;8078;47.822;9.402;2023-02-11T01:08:10;40.33;;;22.63;;
15958;SDS011;8078;47.822;9.402;2023-02-11T01:10:36;43.07;;;22.90;;
15958;SDS011;8078;47.822;9.402;2023-02-11T01:13:01;40.67;;;21.83;;
15958;SDS011;8078;47.822;9.402;2023-02-11T01:15:28;45.03;;;22.73;;
15958;SDS011;8078;47.822;9.402;2023-02-11T01:17:54;44.57;;;20.83;;
15958;SDS011;8078;47.822;9.402;2023-02-11T01:20:21;43.70;;;22.47;;
15958;SDS011;8078;47.822;9.402;2023-02-11T01:22:49;38.00;;;21.63;;
15958;SDS011;8078;47.822;9.402;2023-02-11T01:25:14;39.90;;;22.87;;
15958;SDS011;8078;47.822;9.402;2023-02-11T01:27:40;42.47;;;22.10;;
15958;SDS011;8078;47.822;9.402;2023-02-11T01:30:06;42.33;;;24.57;;
15958;SDS011;8078;47.822;9.402;2023-02-11T01:32:33;46.47;;;24.33;;
15958;SDS011;8078;47.822;9.402;2023-02-11T01:34:59;46.47;;;24.30;;
15958;SDS011;8078;47.822;9.402;2023-02-11T01:37:25;44.37;;;22.77;;
15958;SDS011;8078;47.822;9.402;2023-02-11T01:39:51;46.70;;;24.73;;
15958;SDS011;8078;47.822;9.402;2023-02-11T01:42:21;46.80;;;25.37;;
15958;SDS011;8078;47.822;9.402;2023-02-11T01:44:48;47.73;;;27.43;;
15958;SDS011;8078;47.822;9.402;2023-02-11T01:47:15;72.67;;;36.00;;
15958;SDS011;8078;47.822;9.402;2023-02-11T01:49:42;74.33;;;36.10;;
15958;SDS011;8078;47.822;9.402;2023-02-11T01:52:17;73.37;;;36.10;;
15958;SDS011;8078;47.822;9.402;2023-02-11T01:55:01;77.13;;;38.47;;
15958;SDS011;8078;47.822;9.402;2023-02-11T01:57:50;80.37;;;39.87;;
15958;SDS011;8078;47.822;9.402;2023-02-11T02:00:32;77.30;;;36.93;;
15958;SDS011;8078;47.822;9.402;2023-02-11T02:03:18;78.97;;;34.37;;
15958;SDS011;8078;47.822;9.402;2023-02-11T02:08:46;62.27;;;33.17;;
15958;SDS011;8078;47.822;9.402;2023-02-11T02:11:17;57.00;;;29.37;;
15958;SDS011;8078;47.822;9.402;2023-02-11T02:13:43;56.00;;;29.67;;
15958;SDS011;8078;47.822;9.402;2023-02-11T02:16:13;53.33;;;27.50;;
15958;SDS011;8078;47.822;9.402;2023-02-11T02:18:50;50.10;;;28.00;;
15958;SDS011;8078;47.822;9.402;2023-02-11T02:30:15;43.53;;;23.80;;
15958;SDS011;8078;47.822;9.402;2023-02-11T02:33:11;45.13;;;24.03;;
15958;SDS011;8078;47.822;9.402;2023-02-11T02:38:30;43.53;;;23.03;;
15958;SDS011;8078;47.822;9.402;2023-02-11T02:41:12;46.97;;;23.03;;
15958;SDS011;8078;47.822;9.402;2023-02-11T02:43:44;39.37;;;20.90;;
15958;SDS011;8078;47.822;9.402;2023-02-11T02:46:16;46.17;;;23.37;;
15958;SDS011;8078;47.822;9.402;2023-02-11T02:48:45;39.33;;;19.70;;
15958;SDS011;8078;47.822;9.402;2023-02-11T02:59:55;39.60;;;21.40;;
15958;SDS011;8078;47.822;9.402;2023-02-11T03:05:15;40.37;;;21.33;;
15958;SDS011;8078;47.822;9.402;2023-02-11T03:11:02;44.17;;;21.73;;
15958;SDS011;8078;47.822;9.402;2023-02-11T03:13:31;45.17;;;23.93;;
15958;SDS011;8078;47.822;9.402;2023-02-11T03:16:01;41.17;;;21.43;;
15958;SDS011;8078;47.822;9.402;2023-02-11T03:18:34;39.60;;;19.67;;
15958;SDS011;8078;47.822;9.402;2023-02-11T03:21:03;40.10;;;20.60;;
15958;SDS011;8078;47.822;9.402;2023-02-11T03:23:34;42.20;;;21.30;;
15958;SDS011;8078;47.822;9.402;2023-02-11T03:26:12;36.80;;;20.53;;
15958;SDS011;8078;47.822;9.402;2023-02-11T03:28:56;40.40;;;20.87;;
15958;SDS011;8078;47.822;9.402;2023-02-11T03:31:52;36.33;;;20.37;;
15958;SDS011;8078;47.822;9.402;2023-02-11T03:34:26;45.17;;;21.43;;
15958;SDS011;8078;47.822;9.402;2023-02-11T03:36:59;41.73;;;21.30;;
15958;SDS011;8078;47.822;9.402;2023-02-11T03:39:32;42.30;;;22.77;;
15958;SDS011;8078;47.822;9.402;2023-02-11T03:42:20;42.00;;;23.33;;
15958;SDS011;8078;47.822;9.402;2023-02-11T03:44:50;43.83;;;24.57;;
15958;SDS011;8078;47.822;9.402;2023-02-11T03:47:21;48.47;;;24.97;;
15958;SDS011;8078;47.822;9.402;2023-02-11T03:49:49;48.00;;;27.87;;
15958;SDS011;8078;47.822;9.402;2023-02-11T03:52:17;52.17;;;27.77;;
15958;SDS011;8078;47.822;9.402;2023-02-11T03:54:45;46.03;;;26.83;;
15958;SDS011;8078;47.822;9.402;2023-02-11T03:57:15;48.27;;;26.23;;
15958;SDS011;8078;47.822;9.402;2023-02-11T03:59:54;45.30;;;24.63;;
15958;SDS011;8078;47.822;9.402;2023-02-11T04:02:28;54.07;;;25.67;;
15958;SDS011;8078;47.822;9.402;2023-02-11T04:04:55;46.17;;;24.63;;
15958;SDS011;8078;47.822;9.402;2023-02-11T04:07:21;46.37;;;24.60;;
15958;SDS011;8078;47.822;9.402;2023-02-11T04:09:47;44.63;;;21.10;;
15958;SDS011;8078;47.822;9.402;2023-02-11T04:12:13;41.57;;;22.90;;
15958;SDS011;8078;47.822;9.402;2023-02-11T04:14:38;41.93;;;22.90;;
15958;SDS011;8078;47.822;9.402;2023-02-11T04:17:04;40.23;;;22.27;;
15958;SDS011;8078;47.822;9.402;2023-02-11T04:19:29;40.50;;;21.70;;
15958;SDS011;8078;47.822;9.402;2023-02-11T04:21:55;40.50;;;22.10;;
15958;SDS011;8078;47.822;9.402;2023-02-11T04:24:21;40.93;;;22.37;;
15958;SDS011;8078;47.822;9.402;2023-02-11T04:26:46;43.50;;;22.20;;
15958;SDS011;8078;47.822;9.402;2023-02-11T04:29:12;46.23;;;23.30;;
15958;SDS011;8078;47.822;9.402;2023-02-11T04:31:37;43.47;;;23.60;;
15958;SDS011;8078;47.822;9.402;2023-02-11T04:34:03;43.60;;;23.73;;
15958;SDS011;8078;47.822;9.402;2023-02-11T04:36:28;44.97;;;24.40;;
15958;SDS011;8078;47.822;9.402;2023-02-11T04:38:54;46.27;;;22.67;;
15958;SDS011;8078;47.822;9.402;2023-02-11T04:41:19;43.57;;;22.53;;
15958;SDS011;8078;47.822;9.402;2023-02-11T04:43:45;43.57;;;21.93;;
15958;SDS011;8078;47.822;9.402;2023-02-11T04:46:10;39.43;;;21.10;;
15958;SDS011;8078;47.822;9.402;2023-02-11T04:48:36;41.67;;;21.90;;
15958;SDS011;8078;47.822;9.402;2023-02-11T04:51:02;42.50;;;22.47;;
15958;SDS011;8078;47.822;9.402;2023-02-11T04:53:28;42.27;;;22.93;;
15958;SDS011;8078;47.822;9.402;2023-02-11T04:55:55;41.03;;;22.37;;
15958;SDS011;8078;47.822;9.402;2023-02-11T04:58:21;37.10;;;20.83;;
15958;SDS011;8078;47.822;9.402;2023-02-11T05:00:48;37.57;;;20.67;;
15958;SDS011;8078;47.822;9.402;2023-02-11T05:03:13;36.33;;;19.90;;
15958;SDS011;8078;47.822;9.402;2023-02-11T05:05:40;36.00;;;20.37;;
15958;SDS011;8078;47.822;9.402;2023-02-11T05:08:07;40.43;;;21.53;;
15958;SDS011;8078;47.822;9.402;2023-02-11T05:10:33;33.83;;;20.23;;
15958;SDS011;8078;47.822;9.402;2023-02-11T05:12:59;36.43;;;20.40;;
15958;SDS011;8078;47.822;9.402;2023-02-11T05:15:25;35.93;;;20.43;;
15958;SDS011;8078;47.822;9.402;2023-02-11T05:17:51;39.70;;;21.83;;
15958;SDS011;8078;47.822;9.402;2023-02-11T05:20:17;38.33;;;22.03;;
15958;SDS011;8078;47.822;9.402;2023-02-11T05:22:43;37.83;;;21.20;;
15958;SDS011;8078;47.822;9.402;2023-02-11T05:25:08;37.50;;;20.83;;
15958;SDS011;8078;47.822;9.402;2023-02-11T05:27:34;40.17;;;20.77;;
15958;SDS011;8078;47.822;9.402;2023-02-11T05:29:59;36.83;;;21.00;;
15958;SDS011;8078;47.822;9.402;2023-02-11T05:32:25;36.20;;;20.50;;
15958;SDS011;8078;47.822;9.402;2023-02-11T05:34:50;36.43;;;20.10;;
15958;SDS011;8078;47.822;9.402;2023-02-11T05:37:16;30.70;;;18.23;;
15958;SDS011;8078;47.822;9.402;2023-02-11T05:39:42;35.43;;;19.60;;
15958;SDS011;8078;47.822;9.402;2023-02-11T05:42:09;35.00;;;19.30;;
15958;SDS011;8078;47.822;9.402;2023-02-11T05:44:35;34.47;;;19.20;;
15958;SDS011;8078;47.822;9.402;2023-02-11T05:47:01;34.93;;;19.10;;
15958;SDS011;8078;47.822;9.402;2023-02-11T05:49:26;33.30;;;17.80;;
15958;SDS011;8078;47.822;9.402;2023-02-11T05:51:52;36.63;;;18.70;;
15958;SDS011;8078;47.822;9.402;2023-02-11T05:54:17;34.83;;;18.93;;
15958;SDS011;8078;47.822;9.402;2023-02-11T05:56:43;36.63;;;19.47;;
15958;SDS011;8078;47.822;9.402;2023-02-11T05:59:08;40.40;;;19.07;;
15958;SDS011;8078;47.822;9.402;2023-02-11T06:01:39;36.57;;;18.80;;
15958;SDS011;8078;47.822;9.402;2023-02-11T06:04:04;37.23;;;18.73;;
15958;SDS011;8078;47.822;9.402;2023-02-11T06:06:30;32.47;;;17.37;;
15958;SDS011;8078;47.822;9.402;2023-02-11T06:08:56;38.67;;;19.97;;
15958;SDS011;8078;47.822;9.402;2023-02-11T06:11:21;39.03;;;19.63;;
15958;SDS011;8078;47.822;9.402;2023-02-11T06:13:47;40.53;;;19.57;;
15958;SDS011;8078;47.822;9.402;2023-02-11T06:16:12;36.57;;;19.33;;
15958;SDS011;8078;47.822;9.402;2023-02-11T06:18:38;38.03;;;19.63;;
15958;SDS011;8078;47.822;9.402;2023-02-11T06:21:07;41.83;;;20.73;;
15958;SDS011;8078;47.822;9.402;2023-02-11T06:23:34;43.23;;;20.90;;
15958;SDS011;8078;47.822;9.402;2023-02-11T06:26:01;36.27;;;20.43;;
15958;SDS011;8078;47.822;9.402;2023-02-11T06:28:28;36.07;;;20.33;;
15958;SDS011;8078;47.822;9.402;2023-02-11T06:30:55;39.30;;;21.70;;
15958;SDS011;8078;47.822;9.402;2023-02-11T06:33:21;39.97;;;21.77;;
15958;SDS011;8078;47.822;9.402;2023-02-11T06:35:47;38.37;;;22.10;;
15958;SDS011;8078;47.822;9.402;2023-02-11T06:38:12;39.27;;;20.83;;
15958;SDS011;8078;47.822;9.402;2023-02-11T06:40:38;40.77;;;22.10;;
15958;SDS011;8078;47.822;9.402;2023-02-11T06:43:03;44.13;;;23.60;;
15958;SDS011;8078;47.822;9.402;2023-02-11T06:45:29;70.27;;;36.70;;
15958;SDS011;8078;47.822;9.402;2023-02-11T06:47:55;79.83;;;40.43;;
15958;SDS011;8078;47.822;9.402;2023-02-11T06:50:21;88.60;;;44.93;;
15958;SDS011;8078;47.822;9.402;2023-02-11T06:52:46;120.50;;;57.47;;
15958;SDS011;8078;47.822;9.402;2023-02-11T06:55:12;229.80;;;69.87;;
15958;SDS011;8078;47.822;9.402;2023-02-11T06:57:38;149.07;;;58.30;;
15958;SDS011;8078;47.822;9.402;2023-02-11T07:00:04;586.27;;;113.37;;
15958;SDS011;8078;47.822;9.402;2023-02-11T07:02:30;435.20;;;86.63;;
15958;SDS011;8078;47.822;9.402;2023-02-11T07:04:55;366.80;;;83.13;;
15958;SDS011;8078;47.822;9.402;2023-02-11T07:07:21;599.67;;;110.03;;
15958;SDS011;8078;47.822;9.402;2023-02-11T07:09:46;1159.53;;;139.47;;
15958;SDS011;8078;47.822;9.402;2023-02-11T07:12:12;473.17;;;78.93;;
15958;SDS011;8078;47.822;9.402;2023-02-11T07:14:38;206.83;;;62.00;;
15958;SDS011;8078;47.822;9.402;2023-02-11T07:17:03;186.83;;;60.10;;
15958;SDS011;8078;47.822;9.402;2023-02-11T07:19:29;247.30;;;65.80;;
15958;SDS011;8078;47.822;9.402;2023-02-11T07:21:54;169.97;;;60.47;;
15958;SDS011;8078;47.822;9.402;2023-02-11T07:24:20;148.47;;;56.03;;
15958;SDS011;8078;47.822;9.402;2023-02-11T07:26:46;142.70;;;56.53;;
15958;SDS011;8078;47.822;9.402;2023-02-11T07:29:11;144.67;;;57.30;;
15958;SDS011;8078;47.822;9.402;2023-02-11T07:31:37;138.87;;;57.10;;
15958;SDS011;8078;47.822;9.402;2023-02-11T07:34:02;137.17;;;58.23;;
15958;SDS011;8078;47.822;9.402;2023-02-11T07:36:29;116.87;;;51.00;;
15958;SDS011;8078;47.822;9.402;2023-02-11T07:38:55;114.97;;;48.43;;
15958;SDS011;8078;47.822;9.402;2023-02-11T07:41:22;91.20;;;40.23;;
15958;SDS011;8078;47.822;9.402;2023-02-11T07:43:48;58.23;;;28.50;;
15958;SDS011;8078;47.822;9.402;2023-02-11T07:46:25;50.37;;;25.47;;
15958;SDS011;8078;47.822;9.402;2023-02-11T07:48:51;46.43;;;22.90;;
15958;SDS011;8078;47.822;9.402;2023-02-11T07:51:22;60.87;;;32.67;;
15958;SDS011;8078;47.822;9.402;2023-02-11T07:53:49;59.60;;;30.60;;
15958;SDS011;8078;47.822;9.402;2023-02-11T07:56:16;58.07;;;30.03;;
15958;SDS011;8078;47.822;9.402;2023-02-11T07:58:43;48.87;;;24.97;;
15958;SDS011;8078;47.822;9.402;2023-02-11T08:01:10;48.60;;;25.77;;
15958;SDS011;8078;47.822;9.402;2023-02-11T08:03:37;46.80;;;26.97;;
15958;SDS011;8078;47.822;9.402;2023-02-11T08:06:07;47.07;;;24.10;;
15958;SDS011;8078;47.822;9.402;2023-02-11T08:08:34;39.07;;;23.27;;
15958;SDS011;8078;47.822;9.402;2023-02-11T08:11:04;46.07;;;24.83;;
15958;SDS011;8078;47.822;9.402;2023-02-11T08:13:34;47.90;;;24.37;;
15958;SDS011;8078;47.822;9.402;2023-02-11T08:16:00;40.23;;;22.33;;
15958;SDS011;8078;47.822;9.402;2023-02-11T08:18:26;43.13;;;21.93;;
15958;SDS011;8078;47.822;9.402;2023-02-11T08:20:52;43.77;;;23.83;;
15958;SDS011;8078;47.822;9.402;2023-02-11T08:23:17;41.97;;;23.20;;
15958;SDS011;8078;47.822;9.402;2023-02-11T08:25:43;43.43;;;25.53;;
15958;SDS011;8078;47.822;9.402;2023-02-11T08:28:08;40.17;;;22.83;;
15958;SDS011;8078;47.822;9.402;2023-02-11T08:30:34;42.37;;;21.87;;
15958;SDS011;8078;47.822;9.402;2023-02-11T08:33:00;38.00;;;20.97;;
15958;SDS011;8078;47.822;9.402;2023-02-11T08:35:25;39.80;;;20.73;;
15958;SDS011;8078;47.822;9.402;2023-02-11T08:37:51;39.17;;;21.00;;
15958;SDS011;8078;47.822;9.402;2023-02-11T08:40:17;37.17;;;20.40;;
15958;SDS011;8078;47.822;9.402;2023-02-11T08:42:43;35.20;;;20.13;;
15958;SDS011;8078;47.822;9.402;2023-02-11T08:45:08;36.73;;;20.30;;
15958;SDS011;8078;47.822;9.402;2023-02-11T08:47:34;36.73;;;19.17;;
15958;SDS011;8078;47.822;9.402;2023-02-11T08:50:00;36.17;;;20.97;;
15958;SDS011;8078;47.822;9.402;2023-02-11T08:52:26;35.83;;;20.87;;
15958;SDS011;8078;47.822;9.402;2023-02-11T08:54:52;40.83;;;22.77;;
15958;SDS011;8078;47.822;9.402;2023-02-11T08:57:17;43.73;;;22.90;;
15958;SDS011;8078;47.822;9.402;2023-02-11T08:59:43;60.03;;;30.83;;
15958;SDS011;8078;47.822;9.402;2023-02-11T09:02:10;103.30;;;49.10;;
15958;SDS011;8078;47.822;9.402;2023-02-11T09:04:37;106.60;;;54.13;;
15958;SDS011;8078;47.822;9.402;2023-02-11T09:07:02;65.87;;;34.50;;
15958;SDS011;8078;47.822;9.402;2023-02-11T09:09:28;40.67;;;23.67;;
15958;SDS011;8078;47.822;9.402;2023-02-11T09:11:54;54.03;;;30.90;;
15958;SDS011;8078;47.822;9.402;2023-02-11T09:14:22;52.33;;;29.87;;
15958;SDS011;8078;47.822;9.402;2023-02-11T09:16:49;47.40;;;25.50;;
15958;SDS011;8078;47.822;9.402;2023-02-11T09:19:15;42.50;;;23.13;;
15958;SDS011;8078;47.822;9.402;2023-02-11T09:21:41;38.50;;;22.00;;
15958;SDS011;8078;47.822;9.402;2023-02-11T09:24:06;40.07;;;23.10;;
15958;SDS011;8078;47.822;9.402;2023-02-11T09:26:34;37.47;;;21.53;;
15958;SDS011;8078;47.822;9.402;2023-02-11T09:29:00;35.77;;;21.60;;
15958;SDS011;8078;47.822;9.402;2023-02-11T09:31:27;34.83;;;20.33;;
15958;SDS011;8078;47.822;9.402;2023-02-11T09:33:55;37.43;;;19.47;;
15958;SDS011;8078;47.822;9.402;2023-02-11T09:36:24;36.17;;;19.07;;
15958;SDS011;8078;47.822;9.402;2023-02-11T09:38:52;41.47;;;20.63;;
15958;SDS011;8078;47.822;9.402;2023-02-11T09:43:48;36.93;;;21.33;;
15958;SDS011;8078;47.822;9.402;2023-02-11T09:46:19;39.00;;;19.87;;
15958;SDS011;8078;47.822;9.402;2023-02-11T09:48:46;36.70;;;20.27;;
15958;SDS011;8078;47.822;9.402;2023-02-11T09:51:28;33.33;;;18.10;;
15958;SDS011;8078;47.822;9.402;2023-02-11T09:54:15;38.53;;;19.40;;
15958;SDS011;8078;47.822;9.402;2023-02-11T09:56:51;33.53;;;19.20;;
15958;SDS011;8078;47.822;9.402;2023-02-11T09:59:16;36.30;;;19.43;;
15958;SDS011;8078;47.822;9.402;2023-02-11T10:02:19;37.80;;;20.60;;
15958;SDS011;8078;47.822;9.402;2023-02-11T10:07:35;35.73;;;19.23;;
15958;SDS011;8078;47.822;9.402;2023-02-11T10:15:41;35.53;;;20.67;;
15958;SDS011;8078;47.822;9.402;2023-02-11T10:23:40;42.13;;;23.70;;
15958;SDS011;8078;47.822;9.402;2023-02-11T10:26:11;48.90;;;26.00;;
15958;SDS011;8078;47.822;9.402;2023-02-11T10:28:39;51.43;;;29.03;;
15958;SDS011;8078;47.822;9.402;2023-02-11T10:31:12;46.27;;;25.93;;
15958;SDS011;8078;47.822;9.402;2023-02-11T10:34:01;45.27;;;24.97;;
15958;SDS011;8078;47.822;9.402;2023-02-11T10:36:35;44.80;;;24.10;;
15958;SDS011;8078;47.822;9.402;2023-02-11T10:39:10;47.83;;;25.50;;
15958;SDS011;8078;47.822;9.402;2023-02-11T10:41:38;37.83;;;22.80;;
15958;SDS011;8078;47.822;9.402;2023-02-11T10:44:10;43.53;;;24.37;;
15958;SDS011;8078;47.822;9.402;2023-02-11T10:46:45;43.87;;;24.63;;
15958;SDS011;8078;47.822;9.402;2023-02-11T10:49:31;60.80;;;34.93;;
15958;SDS011;8078;47.822;9.402;2023-02-11T10:52:26;39.40;;;23.07;;
15958;SDS011;8078;47.822;9.402;2023-02-11T10:55:08;49.43;;;26.50;;
15958;SDS011;8078;47.822;9.402;2023-02-11T11:02:41;46.63;;;27.17;;
15958;SDS011;8078;47.822;9.402;2023-02-11T11:05:15;41.90;;;25.73;;
15958;SDS011;8078;47.822;9.402;2023-02-11T11:07:53;48.60;;;27.00;;
15958;SDS011;8078;47.822;9.402;2023-02-11T11:11:00;44.93;;;27.03;;
15958;SDS011;8078;47.822;9.402;2023-02-11T11:18:45;41.87;;;25.47;;
15958;SDS011;8078;47.822;9.402;2023-02-11T11:21:14;44.10;;;26.13;;
15958;SDS011;8078;47.822;9.402;2023-02-11T11:23:50;43.70;;;25.27;;
15958;SDS011;8078;47.822;9.402;2023-02-11T11:26:21;53.40;;;27.93;;
15958;SDS011;8078;47.822;9.402;2023-02-11T11:31:26;39.97;;;24.93;;
15958;SDS011;8078;47.822;9.402;2023-02-11T11:33:53;38.67;;;24.03;;
15958;SDS011;8078;47.822;9.402;2023-02-11T11:36:22;41.63;;;23.83;;
15958;SDS011;8078;47.822;9.402;2023-02-11T11:38:56;43.77;;;26.03;;
15958;SDS011;8078;47.822;9.402;2023-02-11T11:41:26;41.03;;;25.07;;
15958;SDS011;8078;47.822;9.402;2023-02-11T11:46:40;42.47;;;24.73;;
15958;SDS011;8078;47.822;9.402;2023-02-11T11:51:41;38.23;;;22.33;;
15958;SDS011;8078;47.822;9.402;2023-02-11T11:54:11;40.80;;;23.63;;
15958;SDS011;8078;47.822;9.402;2023-02-11T11:57:01;37.63;;;22.70;;
15958;SDS011;8078;47.822;9.402;2023-02-11T11:59:29;38.97;;;22.30;;
15958;SDS011;8078;47.822;9.402;2023-02-11T12:08:02;30.20;;;18.60;;
15958;SDS011;8078;47.822;9.402;2023-02-11T12:10:50;31.17;;;19.53;;
15958;SDS011;8078;47.822;9.402;2023-02-11T12:16:26;31.60;;;18.50;;
15958;SDS011;8078;47.822;9.402;2023-02-11T12:32:27;29.53;;;17.17;;
15958;SDS011;8078;47.822;9.402;2023-02-11T12:43:37;44.30;;;25.63;;
15958;SDS011;8078;47.822;9.402;2023-02-11T12:56:39;33.73;;;20.77;;
15958;SDS011;8078;47.822;9.402;2023-02-11T12:59:31;34.80;;;20.73;;
15958;SDS011;8078;47.822;9.402;2023-02-11T13:02:03;32.33;;;19.70;;
15958;SDS011;8078;47.822;9.402;2023-02-11T13:04:55;35.93;;;20.30;;
15958;SDS011;8078;47.822;9.402;2023-02-11T13:07:27;38.93;;;24.60;;
15958;SDS011;8078;47.822;9.402;2023-02-11T13:10:00;48.00;;;26.97;;
15958;SDS011;8078;47.822;9.402;2023-02-11T13:12:41;42.80;;;26.80;;
15958;SDS011;8078;47.822;9.402;2023-02-11T13:15:28;47.00;;;27.93;;
15958;SDS011;8078;47.822;9.402;2023-02-11T13:18:21;48.27;;;29.53;;
15958;SDS011;8078;47.822;9.402;2023-02-11T13:21:15;56.90;;;31.60;;
15958;SDS011;8078;47.822;9.402;2023-02-11T13:24:18;51.77;;;28.97;;
15958;SDS011;8078;47.822;9.402;2023-02-11T13:26:59;51.50;;;29.20;;
15958;SDS011;8078;47.822;9.402;2023-02-11T13:32:11;47.50;;;28.83;;
15958;SDS011;8078;47.822;9.402;2023-02-11T13:37:33;48.90;;;28.63;;
15958;SDS011;8078;47.822;9.402;2023-02-11T13:40:06;49.93;;;29.43;;
15958;SDS011;8078;47.822;9.402;2023-02-11T13:42:53;50.60;;;29.30;;
15958;SDS011;8078;47.822;9.402;2023-02-11T13:45:30;47.20;;;28.93;;
15958;SDS011;8078;47.822;9.402;2023-02-11T13:48:04;52.97;;;29.13;;
15958;SDS011;8078;47.822;9.402;2023-02-11T13:50:35;43.93;;;24.87;;
15958;SDS011;8078;47.822;9.402;2023-02-11T13:53:02;46.90;;;26.30;;
15958;SDS011;8078;47.822;9.402;2023-02-11T13:55:31;48.13;;;28.20;;
15958;SDS011;8078;47.822;9.402;2023-02-11T14:14:18;53.10;;;29.73;;
15958;SDS011;8078;47.822;9.402;2023-02-11T14:19:30;51.10;;;29.93;;
15958;SDS011;8078;47.822;9.402;2023-02-11T14:22:16;54.80;;;31.60;;
15958;SDS011;8078;47.822;9.402;2023-02-11T14:27:17;49.53;;;28.97;;
15958;SDS011;8078;47.822;9.402;2023-02-11T14:38:25;54.77;;;30.57;;
15958;SDS011;8078;47.822;9.402;2023-02-11T14:41:19;54.77;;;31.47;;
15958;SDS011;8078;47.822;9.402;2023-02-11T14:43:50;52.93;;;30.47;;
15958;SDS011;8078;47.822;9.402;2023-02-11T14:46:19;53.13;;;28.70;;
15958;SDS011;8078;47.822;9.402;2023-02-11T14:48:46;49.73;;;29.43;;
15958;SDS011;8078;47.822;9.402;2023-02-11T14:51:18;51.00;;;28.63;;
15958;SDS011;8078;47.822;9.402;2023-02-11T14:53:51;47.70;;;27.23;;
15958;SDS011;8078;47.822;9.402;2023-02-11T14:56:37;48.50;;;26.97;;
15958;SDS011;8078;47.822;9.402;2023-02-11T14:59:12;44.57;;;26.87;;
15958;SDS011;8078;47.822;9.402;2023-02-11T15:01:51;50.20;;;28.23;;
15958;SDS011;8078;47.822;9.402;2023-02-11T15:04:24;49.07;;;27.33;;
15958;SDS011;8078;47.822;9.402;2023-02-11T15:06:52;48.87;;;28.17;;
15958;SDS011;8078;47.822;9.402;2023-02-11T15:09:23;49.10;;;26.73;;
15958;SDS011;8078;47.822;9.402;2023-02-11T15:11:53;49.17;;;27.83;;
15958;SDS011;8078;47.822;9.402;2023-02-11T15:14:22;50.53;;;28.30;;
15958;SDS011;8078;47.822;9.402;2023-02-11T15:16:51;47.70;;;27.50;;
15958;SDS011;8078;47.822;9.402;2023-02-11T15:21:47;48.43;;;28.60;;
15958;SDS011;8078;47.822;9.402;2023-02-11T15:29:33;51.20;;;29.30;;
15958;SDS011;8078;47.822;9.402;2023-02-11T15:32:04;50.57;;;28.83;;
15958;SDS011;8078;47.822;9.402;2023-02-11T15:34:50;55.20;;;28.70;;
15958;SDS011;8078;47.822;9.402;2023-02-11T15:37:21;53.10;;;28.20;;
15958;SDS011;8078;47.822;9.402;2023-02-11T15:39:49;51.07;;;29.37;;
15958;SDS011;8078;47.822;9.402;2023-02-11T15:42:26;51.33;;;29.00;;
15958;SDS011;8078;47.822;9.402;2023-02-11T15:47:36;48.30;;;28.20;;
15958;SDS011;8078;47.822;9.402;2023-02-11T15:50:02;55.47;;;27.57;;
15958;SDS011;8078;47.822;9.402;2023-02-11T15:52:29;50.80;;;27.27;;
15958;SDS011;8078;47.822;9.402;2023-02-11T15:54:56;50.40;;;28.03;;
15958;SDS011;8078;47.822;9.402;2023-02-11T15:57:25;51.07;;;27.43;;
15958;SDS011;8078;47.822;9.402;2023-02-11T15:59:52;50.10;;;28.83;;
15958;SDS011;8078;47.822;9.402;2023-02-11T16:02:30;47.57;;;25.40;;
15958;SDS011;8078;47.822;9.402;2023-02-11T16:05:02;50.27;;;27.93;;
15958;SDS011;8078;47.822;9.402;2023-02-11T16:07:40;45.87;;;26.73;;
15958;SDS011;8078;47.822;9.402;2023-02-11T16:13:16;45.03;;;27.27;;
15958;SDS011;8078;47.822;9.402;2023-02-11T16:15:44;48.77;;;27.07;;
15958;SDS011;8078;47.822;9.402;2023-02-11T16:20:50;43.83;;;24.83;;
15958;SDS011;8078;47.822;9.402;2023-02-11T16:23:34;42.83;;;23.97;;
15958;SDS011;8078;47.822;9.402;2023-02-11T16:29:00;35.13;;;19.67;;
15958;SDS011;8078;47.822;9.402;2023-02-11T16:31:31;29.47;;;17.20;;
15958;SDS011;8078;47.822;9.402;2023-02-11T16:33:58;32.10;;;18.27;;
15958;SDS011;8078;47.822;9.402;2023-02-11T16:36:24;37.53;;;19.40;;
15958;SDS011;8078;47.822;9.402;2023-02-11T16:38:49;31.43;;;19.03;;
15958;SDS011;8078;47.822;9.402;2023-02-11T16:41:15;30.77;;;18.47;;
15958;SDS011;8078;47.822;9.402;2023-02-11T16:43:40;35.17;;;18.40;;
15958;SDS011;8078;47.822;9.402;2023-02-11T16:46:06;32.10;;;17.60;;
15958;SDS011;8078;47.822;9.402;2023-02-11T16:48:33;32.00;;;17.80;;
15958;SDS011;8078;47.822;9.402;2023-02-11T16:50:59;30.23;;;16.97;;
15958;SDS011;8078;47.822;9.402;2023-02-11T16:53:24;30.73;;;16.33;;
15958;SDS011;8078;47.822;9.402;2023-02-11T16:55:50;35.10;;;17.57;;
15958;SDS011;8078;47.822;9.402;2023-02-11T16:58:17;27.47;;;16.60;;
15958;SDS011;8078;47.822;9.402;2023-02-11T17:00:43;33.33;;;17.30;;
15958;SDS011;8078;47.822;9.402;2023-02-11T17:03:19;30.90;;;16.80;;
15958;SDS011;8078;47.822;9.402;2023-02-11T17:05:47;33.33;;;17.47;;
15958;SDS011;8078;47.822;9.402;2023-02-11T17:08:13;31.03;;;17.17;;
15958;SDS011;8078;47.822;9.402;2023-02-11T17:10:39;31.83;;;17.57;;
15958;SDS011;8078;47.822;9.402;2023-02-11T17:13:04;33.93;;;19.20;;
15958;SDS011;8078;47.822;9.402;2023-02-11T17:15:30;30.57;;;18.70;;
15958;SDS011;8078;47.822;9.402;2023-02-11T17:17:56;30.63;;;18.50;;
15958;SDS011;8078;47.822;9.402;2023-02-11T17:20:22;33.13;;;19.10;;
15958;SDS011;8078;47.822;9.402;2023-02-11T17:22:48;30.37;;;18.13;;
15958;SDS011;8078;47.822;9.402;2023-02-11T17:25:13;29.47;;;17.47;;
15958;SDS011;8078;47.822;9.402;2023-02-11T17:27:39;27.07;;;15.87;;